sensor_id;sensor_type;location;lat;lon;timestamp;pressure;altitude;pressure_sealevel;temperature;humidity
3780;BME280;1905;52.482;9.802;2022-10-31T00:01:26;101470.25;;;13.43;87.73
3780;BME280;1905;52.482;9.802;2022-10-31T00:03:56;101471.25;;;13.41;87.78
3780;BME280;1905;52.482;9.802;2022-10-31T00:06:24;101475.69;;;13.40;87.74
3780;BME280;1905;52.482;9.802;2022-10-31T00:08:53;101484.59;;;13.39;87.90
3780;BME280;1905;52.482;9.802;2022-10-31T00:11:21;101479.34;;;13.38;88.14
3780;BME280;1905;52.482;9.802;2022-10-31T00:13:50;101481.19;;;13.36;87.90
3780;BME280;1905;52.482;9.802;2022-10-31T00:16:19;101473.31;;;13.34;88.25
3780;BME280;1905;52.482;9.802;2022-10-31T00:18:48;101475.97;;;13.34;87.65
3780;BME280;1905;52.482;9.802;2022-10-31T00:21:18;101466.41;;;13.30;88.07
3780;BME280;1905;52.482;9.802;2022-10-31T00:23:46;101467.31;;;13.29;88.37
3780;BME280;1905;52.482;9.802;2022-10-31T00:26:14;101472.63;;;13.29;88.03
3780;BME280;1905;52.482;9.802;2022-10-31T00:28:42;101484.19;;;13.28;87.91
3780;BME280;1905;52.482;9.802;2022-10-31T00:31:11;101487.75;;;13.27;87.99
3780;BME280;1905;52.482;9.802;2022-10-31T00:33:41;101485.09;;;13.27;87.99
3780;BME280;1905;52.482;9.802;2022-10-31T00:36:12;101486.09;;;13.25;88.14
3780;BME280;1905;52.482;9.802;2022-10-31T00:38:43;101494.03;;;13.25;88.46
3780;BME280;1905;52.482;9.802;2022-10-31T00:41:12;101502.91;;;13.24;88.30
3780;BME280;1905;52.482;9.802;2022-10-31T00:43:40;101496.91;;;13.20;88.77
3780;BME280;1905;52.482;9.802;2022-10-31T00:46:09;101502.13;;;13.22;88.45
3780;BME280;1905;52.482;9.802;2022-10-31T00:48:37;101499.56;;;13.20;88.36
3780;BME280;1905;52.482;9.802;2022-10-31T00:51:05;101502.22;;;13.20;88.99
3780;BME280;1905;52.482;9.802;2022-10-31T00:53:33;101514.59;;;13.20;88.63
3780;BME280;1905;52.482;9.802;2022-10-31T00:56:06;101508.44;;;13.19;89.34
3780;BME280;1905;52.482;9.802;2022-10-31T00:58:38;101515.50;;;13.19;88.68
3780;BME280;1905;52.482;9.802;2022-10-31T01:01:07;101512.00;;;13.18;89.40
3780;BME280;1905;52.482;9.802;2022-10-31T01:03:36;101516.38;;;13.19;90.15
3780;BME280;1905;52.482;9.802;2022-10-31T01:06:10;101521.69;;;13.19;89.92
3780;BME280;1905;52.482;9.802;2022-10-31T01:08:39;101512.75;;;13.22;90.04
3780;BME280;1905;52.482;9.802;2022-10-31T01:11:14;101519.03;;;13.19;89.13
3780;BME280;1905;52.482;9.802;2022-10-31T01:13:43;101524.28;;;13.21;89.62
3780;BME280;1905;52.482;9.802;2022-10-31T01:16:13;101533.03;;;13.23;89.16
3780;BME280;1905;52.482;9.802;2022-10-31T01:18:41;101526.88;;;13.22;89.43
3780;BME280;1905;52.482;9.802;2022-10-31T01:21:11;101526.88;;;13.22;90.89
3780;BME280;1905;52.482;9.802;2022-10-31T01:23:40;101533.03;;;13.23;90.53
3780;BME280;1905;52.482;9.802;2022-10-31T01:26:14;101531.13;;;13.26;90.94
3780;BME280;1905;52.482;9.802;2022-10-31T01:28:45;101538.94;;;13.29;90.50
3780;BME280;1905;52.482;9.802;2022-10-31T01:31:13;101539.78;;;13.31;91.47
3780;BME280;1905;52.482;9.802;2022-10-31T01:33:41;101539.66;;;13.34;91.25
3780;BME280;1905;52.482;9.802;2022-10-31T01:36:16;101535.13;;;13.36;91.70
3780;BME280;1905;52.482;9.802;2022-10-31T01:38:45;101537.72;;;13.38;90.58
3780;BME280;1905;52.482;9.802;2022-10-31T01:41:16;101536.72;;;13.40;90.00
3780;BME280;1905;52.482;9.802;2022-10-31T01:43:48;101536.59;;;13.43;90.38
3780;BME280;1905;52.482;9.802;2022-10-31T01:46:20;101547.22;;;13.43;90.36
3780;BME280;1905;52.482;9.802;2022-10-31T01:48:50;101544.44;;;13.46;90.22
3780;BME280;1905;52.482;9.802;2022-10-31T01:51:20;101540.03;;;13.45;89.53
3780;BME280;1905;52.482;9.802;2022-10-31T01:53:51;101543.38;;;13.50;91.27
3780;BME280;1905;52.482;9.802;2022-10-31T01:56:22;101546.88;;;13.51;90.02
3780;BME280;1905;52.482;9.802;2022-10-31T01:58:50;101550.41;;;13.51;90.73
3780;BME280;1905;52.482;9.802;2022-10-31T02:01:19;101560.84;;;13.56;89.78
3780;BME280;1905;52.482;9.802;2022-10-31T02:03:48;101550.06;;;13.59;92.15
3780;BME280;1905;52.482;9.802;2022-10-31T02:06:27;101551.88;;;13.58;91.41
3780;BME280;1905;52.482;9.802;2022-10-31T02:09:03;101557.31;;;13.55;91.04
3780;BME280;1905;52.482;9.802;2022-10-31T02:11:34;101554.59;;;13.57;90.25
3780;BME280;1905;52.482;9.802;2022-10-31T02:14:03;101552.94;;;13.54;89.61
3780;BME280;1905;52.482;9.802;2022-10-31T02:16:32;101555.47;;;13.57;90.26
3780;BME280;1905;52.482;9.802;2022-10-31T02:19:02;101558.00;;;13.60;90.14
3780;BME280;1905;52.482;9.802;2022-10-31T02:21:39;101553.59;;;13.59;91.85
3780;BME280;1905;52.482;9.802;2022-10-31T02:24:27;101557.19;;;13.58;89.75
3780;BME280;1905;52.482;9.802;2022-10-31T02:27:08;101569.59;;;13.58;89.70
3780;BME280;1905;52.482;9.802;2022-10-31T02:30:03;101564.09;;;13.62;89.55
3780;BME280;1905;52.482;9.802;2022-10-31T02:32:43;101566.75;;;13.62;89.46
3780;BME280;1905;52.482;9.802;2022-10-31T02:35:24;101567.81;;;13.58;90.03
3780;BME280;1905;52.482;9.802;2022-10-31T02:38:00;101570.47;;;13.58;90.43
3780;BME280;1905;52.482;9.802;2022-10-31T02:40:34;101564.34;;;13.56;90.25
3780;BME280;1905;52.482;9.802;2022-10-31T02:43:20;101566.19;;;13.54;89.00
3780;BME280;1905;52.482;9.802;2022-10-31T02:45:54;101562.63;;;13.55;89.78
3780;BME280;1905;52.482;9.802;2022-10-31T02:48:27;101569.78;;;13.53;88.73
3780;BME280;1905;52.482;9.802;2022-10-31T02:50:57;101575.09;;;13.53;88.78
3780;BME280;1905;52.482;9.802;2022-10-31T02:53:31;101568.94;;;13.53;88.82
3780;BME280;1905;52.482;9.802;2022-10-31T02:56:02;101567.31;;;13.49;89.09
3780;BME280;1905;52.482;9.802;2022-10-31T02:58:35;101576.16;;;13.49;88.57
3780;BME280;1905;52.482;9.802;2022-10-31T03:04:20;101568.19;;;13.49;88.51
3780;BME280;1905;52.482;9.802;2022-10-31T03:06:56;101564.75;;;13.47;88.31
3780;BME280;1905;52.482;9.802;2022-10-31T03:09:28;101567.41;;;13.47;88.29
3780;BME280;1905;52.482;9.802;2022-10-31T03:12:05;101566.56;;;13.45;88.38
3780;BME280;1905;52.482;9.802;2022-10-31T03:14:40;101569.44;;;13.41;88.37
3780;BME280;1905;52.482;9.802;2022-10-31T03:17:14;101571.22;;;13.40;88.13
3780;BME280;1905;52.482;9.802;2022-10-31T03:19:48;101581.03;;;13.38;88.21
3780;BME280;1905;52.482;9.802;2022-10-31T03:22:20;101578.34;;;13.40;87.97
3780;BME280;1905;52.482;9.802;2022-10-31T03:24:49;101578.50;;;13.35;88.22
3780;BME280;1905;52.482;9.802;2022-10-31T03:27:22;101583.00;;;13.33;88.64
3780;BME280;1905;52.482;9.802;2022-10-31T03:29:56;101586.56;;;13.32;87.90
3780;BME280;1905;52.482;9.802;2022-10-31T03:32:31;101580.41;;;13.32;88.31
3780;BME280;1905;52.482;9.802;2022-10-31T03:35:04;101584.91;;;13.30;88.25
3780;BME280;1905;52.482;9.802;2022-10-31T03:37:35;101584.31;;;13.23;88.38
3780;BME280;1905;52.482;9.802;2022-10-31T03:40:11;101584.38;;;13.22;88.34
3780;BME280;1905;52.482;9.802;2022-10-31T03:42:42;101590.63;;;13.21;88.76
3780;BME280;1905;52.482;9.802;2022-10-31T03:45:13;101592.41;;;13.20;88.02
3780;BME280;1905;52.482;9.802;2022-10-31T03:47:43;101594.22;;;13.18;88.37
3780;BME280;1905;52.482;9.802;2022-10-31T03:50:14;101595.28;;;13.14;88.51
3780;BME280;1905;52.482;9.802;2022-10-31T03:52:46;101594.50;;;13.12;88.65
3780;BME280;1905;52.482;9.802;2022-10-31T03:55:18;101597.28;;;13.07;88.26
3780;BME280;1905;52.482;9.802;2022-10-31T03:57:51;101606.09;;;13.09;88.67
3780;BME280;1905;52.482;9.802;2022-10-31T04:00:23;101599.19;;;13.04;88.64
3780;BME280;1905;52.482;9.802;2022-10-31T04:02:56;101600.09;;;13.03;88.68
3780;BME280;1905;52.482;9.802;2022-10-31T04:05:32;101606.47;;;12.99;88.55
3780;BME280;1905;52.482;9.802;2022-10-31T04:08:04;101605.66;;;12.97;88.71
3780;BME280;1905;52.482;9.802;2022-10-31T04:10:39;101612.91;;;12.92;88.84
3780;BME280;1905;52.482;9.802;2022-10-31T04:13:14;101616.50;;;12.91;89.09
3780;BME280;1905;52.482;9.802;2022-10-31T04:15:49;101619.16;;;12.91;88.79
3780;BME280;1905;52.482;9.802;2022-10-31T04:18:22;101620.97;;;12.89;88.59
3780;BME280;1905;52.482;9.802;2022-10-31T04:21:01;101616.72;;;12.85;88.55
3780;BME280;1905;52.482;9.802;2022-10-31T04:23:29;101618.44;;;12.86;88.65
3780;BME280;1905;52.482;9.802;2022-10-31T04:26:00;101622.16;;;12.82;88.85
3780;BME280;1905;52.482;9.802;2022-10-31T04:28:28;101623.84;;;12.83;88.60
3780;BME280;1905;52.482;9.802;2022-10-31T04:30:56;101632.00;;;12.78;88.90
3780;BME280;1905;52.482;9.802;2022-10-31T04:33:24;101627.56;;;12.79;88.58
3780;BME280;1905;52.482;9.802;2022-10-31T04:35:52;101636.53;;;12.75;88.83
3780;BME280;1905;52.482;9.802;2022-10-31T04:38:23;101638.50;;;12.70;88.73
3780;BME280;1905;52.482;9.802;2022-10-31T04:40:52;101632.31;;;12.69;88.49
3780;BME280;1905;52.482;9.802;2022-10-31T04:43:53;101629.84;;;12.65;88.77
3780;BME280;1905;52.482;9.802;2022-10-31T04:46:22;101637.00;;;12.63;88.75
3780;BME280;1905;52.482;9.802;2022-10-31T04:48:51;101635.38;;;12.59;88.97
3780;BME280;1905;52.482;9.802;2022-10-31T04:51:19;101639.88;;;12.57;88.89
3780;BME280;1905;52.482;9.802;2022-10-31T04:53:48;101635.63;;;12.52;88.85
3780;BME280;1905;52.482;9.802;2022-10-31T04:56:39;101637.41;;;12.52;89.07
3780;BME280;1905;52.482;9.802;2022-10-31T04:59:15;101630.44;;;12.49;88.91
3780;BME280;1905;52.482;9.802;2022-10-31T05:01:53;101632.25;;;12.47;89.09
3780;BME280;1905;52.482;9.802;2022-10-31T05:04:36;101628.00;;;12.43;89.17
3780;BME280;1905;52.482;9.802;2022-10-31T05:07:04;101628.91;;;12.42;89.34
3780;BME280;1905;52.482;9.802;2022-10-31T05:09:33;101629.78;;;12.43;88.73
3780;BME280;1905;52.482;9.802;2022-10-31T05:12:01;101626.44;;;12.38;89.12
3780;BME280;1905;52.482;9.802;2022-10-31T05:14:52;101617.78;;;12.33;89.04
3780;BME280;1905;52.482;9.802;2022-10-31T05:17:41;101624.94;;;12.31;89.42
3780;BME280;1905;52.482;9.802;2022-10-31T05:20:19;101622.31;;;12.29;88.98
3780;BME280;1905;52.482;9.802;2022-10-31T05:23:06;101624.19;;;12.26;89.17
3780;BME280;1905;52.482;9.802;2022-10-31T05:25:35;101625.19;;;12.23;88.96
3780;BME280;1905;52.482;9.802;2022-10-31T05:28:03;101623.50;;;12.21;88.88
3780;BME280;1905;52.482;9.802;2022-10-31T05:30:33;101619.19;;;12.18;89.28
3780;BME280;1905;52.482;9.802;2022-10-31T05:33:02;101616.53;;;12.18;88.92
3780;BME280;1905;52.482;9.802;2022-10-31T05:35:50;101613.16;;;12.15;89.33
3780;BME280;1905;52.482;9.802;2022-10-31T05:38:34;101613.28;;;12.10;89.23
3780;BME280;1905;52.482;9.802;2022-10-31T05:41:11;101611.72;;;12.05;89.48
3780;BME280;1905;52.482;9.802;2022-10-31T05:43:43;101620.59;;;12.04;89.19
3780;BME280;1905;52.482;9.802;2022-10-31T05:46:11;101621.59;;;12.01;89.29
3780;BME280;1905;52.482;9.802;2022-10-31T05:48:58;101632.16;;;12.01;88.71
3780;BME280;1905;52.482;9.802;2022-10-31T05:51:47;101631.34;;;11.99;89.08
3780;BME280;1905;52.482;9.802;2022-10-31T05:54:14;101637.66;;;11.95;89.25
3780;BME280;1905;52.482;9.802;2022-10-31T05:56:46;101632.38;;;11.95;89.32
3780;BME280;1905;52.482;9.802;2022-10-31T05:59:13;101639.47;;;11.93;89.02
3780;BME280;1905;52.482;9.802;2022-10-31T06:01:41;101632.47;;;11.92;89.23
3780;BME280;1905;52.482;9.802;2022-10-31T06:04:24;101637.94;;;11.87;89.17
3780;BME280;1905;52.482;9.802;2022-10-31T06:06:52;101635.50;;;11.80;89.21
3780;BME280;1905;52.482;9.802;2022-10-31T06:09:21;101634.59;;;11.81;89.37
3780;BME280;1905;52.482;9.802;2022-10-31T06:11:50;101631.06;;;11.82;89.30
3780;BME280;1905;52.482;9.802;2022-10-31T06:14:24;101629.38;;;11.79;89.35
3780;BME280;1905;52.482;9.802;2022-10-31T06:16:54;101636.56;;;11.76;89.60
3780;BME280;1905;52.482;9.802;2022-10-31T06:20:00;101641.84;;;11.76;89.12
3780;BME280;1905;52.482;9.802;2022-10-31T06:22:31;101642.91;;;11.70;89.33
3780;BME280;1905;52.482;9.802;2022-10-31T06:24:59;101644.63;;;11.71;89.40
3780;BME280;1905;52.482;9.802;2022-10-31T06:27:32;101656.06;;;11.72;89.16
3780;BME280;1905;52.482;9.802;2022-10-31T06:30:08;101646.53;;;11.66;89.78
3780;BME280;1905;52.482;9.802;2022-10-31T06:32:36;101644.81;;;11.65;89.39
3780;BME280;1905;52.482;9.802;2022-10-31T06:35:05;101646.53;;;11.66;89.01
3780;BME280;1905;52.482;9.802;2022-10-31T06:37:34;101653.63;;;11.66;89.15
3780;BME280;1905;52.482;9.802;2022-10-31T06:40:25;101662.63;;;11.60;89.69
3780;BME280;1905;52.482;9.802;2022-10-31T06:43:13;101672.25;;;11.63;89.13
3780;BME280;1905;52.482;9.802;2022-10-31T06:45:42;101670.59;;;11.59;89.32
3780;BME280;1905;52.482;9.802;2022-10-31T06:48:30;101668.84;;;11.58;89.50
3780;BME280;1905;52.482;9.802;2022-10-31T06:51:15;101664.41;;;11.60;89.47
3780;BME280;1905;52.482;9.802;2022-10-31T06:53:42;101662.72;;;11.57;89.20
3780;BME280;1905;52.482;9.802;2022-10-31T06:56:36;101669.72;;;11.58;89.29
3780;BME280;1905;52.482;9.802;2022-10-31T06:59:06;101670.78;;;11.53;89.12
3780;BME280;1905;52.482;9.802;2022-10-31T07:02:13;101673.41;;;11.53;89.58
3780;BME280;1905;52.482;9.802;2022-10-31T07:04:42;101675.94;;;11.57;88.91
3780;BME280;1905;52.482;9.802;2022-10-31T07:07:14;101672.44;;;11.57;89.00
3780;BME280;1905;52.482;9.802;2022-10-31T07:09:43;101682.03;;;11.59;89.00
3780;BME280;1905;52.482;9.802;2022-10-31T07:12:15;101691.75;;;11.59;89.02
3780;BME280;1905;52.482;9.802;2022-10-31T07:14:53;101679.50;;;11.56;88.91
3780;BME280;1905;52.482;9.802;2022-10-31T07:17:23;101681.34;;;11.53;89.14
3780;BME280;1905;52.482;9.802;2022-10-31T07:19:58;101692.88;;;11.52;89.30
3780;BME280;1905;52.482;9.802;2022-10-31T07:22:32;101694.66;;;11.51;88.94
3780;BME280;1905;52.482;9.802;2022-10-31T07:25:03;101696.41;;;11.51;89.27
3780;BME280;1905;52.482;9.802;2022-10-31T07:27:57;101698.06;;;11.55;88.78
3780;BME280;1905;52.482;9.802;2022-10-31T07:30:27;101698.97;;;11.54;88.93
3780;BME280;1905;52.482;9.802;2022-10-31T07:32:56;101688.47;;;11.51;89.32
3780;BME280;1905;52.482;9.802;2022-10-31T07:35:39;101686.56;;;11.56;88.75
3780;BME280;1905;52.482;9.802;2022-10-31T07:38:12;101690.84;;;11.60;89.01
3780;BME280;1905;52.482;9.802;2022-10-31T07:40:42;101688.22;;;11.60;88.85
3780;BME280;1905;52.482;9.802;2022-10-31T07:43:11;101688.28;;;11.57;89.02
3780;BME280;1905;52.482;9.802;2022-10-31T07:45:59;101691.75;;;11.59;88.74
3780;BME280;1905;52.482;9.802;2022-10-31T07:48:49;101693.59;;;11.57;88.98
3780;BME280;1905;52.482;9.802;2022-10-31T07:51:35;101700.59;;;11.58;89.33
3780;BME280;1905;52.482;9.802;2022-10-31T07:54:22;101701.34;;;11.63;89.71
3780;BME280;1905;52.482;9.802;2022-10-31T07:56:50;101699.44;;;11.66;88.94
3780;BME280;1905;52.482;9.802;2022-10-31T07:59:17;101705.59;;;11.67;88.79
3780;BME280;1905;52.482;9.802;2022-10-31T08:01:48;101703.81;;;11.69;88.71
3780;BME280;1905;52.482;9.802;2022-10-31T08:04:51;101716.13;;;11.70;89.11
3780;BME280;1905;52.482;9.802;2022-10-31T08:07:26;101708.03;;;11.74;88.89
3780;BME280;1905;52.482;9.802;2022-10-31T08:09:59;101706.22;;;11.76;88.71
3780;BME280;1905;52.482;9.802;2022-10-31T08:12:30;101703.53;;;11.78;88.90
3780;BME280;1905;52.482;9.802;2022-10-31T08:14:57;101694.59;;;11.80;89.74
3780;BME280;1905;52.482;9.802;2022-10-31T08:17:26;101704.22;;;11.83;90.77
3780;BME280;1905;52.482;9.802;2022-10-31T08:19:56;101706.78;;;11.86;89.71
3780;BME280;1905;52.482;9.802;2022-10-31T08:22:29;101704.91;;;11.89;90.10
3780;BME280;1905;52.482;9.802;2022-10-31T08:24:58;101705.63;;;11.94;91.92
3780;BME280;1905;52.482;9.802;2022-10-31T08:27:26;101704.66;;;11.97;90.55
3780;BME280;1905;52.482;9.802;2022-10-31T08:29:57;101708.06;;;12.01;91.71
3780;BME280;1905;52.482;9.802;2022-10-31T08:32:27;101700.88;;;12.04;91.18
3780;BME280;1905;52.482;9.802;2022-10-31T08:35:13;101701.53;;;12.11;90.25
3780;BME280;1905;52.482;9.802;2022-10-31T08:38:00;101694.28;;;12.17;93.27
3780;BME280;1905;52.482;9.802;2022-10-31T08:40:30;101685.25;;;12.23;92.79
3780;BME280;1905;52.482;9.802;2022-10-31T08:43:03;101684.19;;;12.28;93.75
3780;BME280;1905;52.482;9.802;2022-10-31T08:45:33;101675.03;;;12.37;94.72
3780;BME280;1905;52.482;9.802;2022-10-31T08:48:13;101665.88;;;12.45;94.67
3780;BME280;1905;52.482;9.802;2022-10-31T08:50:42;101678.03;;;12.52;96.04
3780;BME280;1905;52.482;9.802;2022-10-31T08:53:12;101664.59;;;12.57;95.42
3780;BME280;1905;52.482;9.802;2022-10-31T08:55:42;101667.72;;;12.68;96.91
3780;BME280;1905;52.482;9.802;2022-10-31T08:58:23;101662.03;;;12.79;97.43
3780;BME280;1905;52.482;9.802;2022-10-31T09:00:59;101657.31;;;12.87;97.43
3780;BME280;1905;52.482;9.802;2022-10-31T09:03:29;101654.34;;;12.94;97.70
3780;BME280;1905;52.482;9.802;2022-10-31T09:06:00;101653.94;;;13.05;98.08
3780;BME280;1905;52.482;9.802;2022-10-31T09:08:30;101656.41;;;13.11;97.42
3780;BME280;1905;52.482;9.802;2022-10-31T09:11:00;101655.94;;;13.23;98.09
3780;BME280;1905;52.482;9.802;2022-10-31T09:13:47;101661.75;;;13.33;99.07
3780;BME280;1905;52.482;9.802;2022-10-31T09:16:14;101659.59;;;13.42;99.36
3780;BME280;1905;52.482;9.802;2022-10-31T09:18:44;101658.19;;;13.55;99.40
3780;BME280;1905;52.482;9.802;2022-10-31T09:21:15;101658.72;;;13.63;97.87
3780;BME280;1905;52.482;9.802;2022-10-31T09:23:45;101663.59;;;13.74;98.88
3780;BME280;1905;52.482;9.802;2022-10-31T09:26:14;101662.38;;;13.83;98.56
3780;BME280;1905;52.482;9.802;2022-10-31T09:29:00;101668.16;;;13.92;98.70
3780;BME280;1905;52.482;9.802;2022-10-31T09:31:29;101661.47;;;14.04;98.15
3780;BME280;1905;52.482;9.802;2022-10-31T09:34:06;101668.22;;;14.11;96.94
3780;BME280;1905;52.482;9.802;2022-10-31T09:36:37;101662.53;;;14.20;96.93
3780;BME280;1905;52.482;9.802;2022-10-31T09:39:13;101664.72;;;14.30;96.68
3780;BME280;1905;52.482;9.802;2022-10-31T09:41:57;101658.19;;;14.39;96.32
3780;BME280;1905;52.482;9.802;2022-10-31T09:44:34;101657.72;;;14.50;97.00
3780;BME280;1905;52.482;9.802;2022-10-31T09:47:18;101659.97;;;14.59;96.35
3780;BME280;1905;52.482;9.802;2022-10-31T09:50:14;101659.50;;;14.69;95.95
3780;BME280;1905;52.482;9.802;2022-10-31T09:52:54;101654.69;;;14.77;95.73
3780;BME280;1905;52.482;9.802;2022-10-31T09:55:31;101647.38;;;14.82;95.62
3780;BME280;1905;52.482;9.802;2022-10-31T09:58:04;101653.28;;;14.89;94.75
3780;BME280;1905;52.482;9.802;2022-10-31T10:00:34;101649.31;;;14.98;95.15
3780;BME280;1905;52.482;9.802;2022-10-31T10:03:07;101654.16;;;15.08;93.21
3780;BME280;1905;52.482;9.802;2022-10-31T10:05:43;101647.81;;;15.11;94.23
3780;BME280;1905;52.482;9.802;2022-10-31T10:08:25;101657.31;;;15.16;93.88
3780;BME280;1905;52.482;9.802;2022-10-31T10:11:28;101642.91;;;15.20;94.55
3780;BME280;1905;52.482;9.802;2022-10-31T10:14:33;101638.19;;;15.27;93.69
3780;BME280;1905;52.482;9.802;2022-10-31T10:17:15;101641.63;;;15.29;92.78
3780;BME280;1905;52.482;9.802;2022-10-31T10:20:04;101639.59;;;15.34;92.42
3780;BME280;1905;52.482;9.802;2022-10-31T10:22:43;101642.03;;;15.38;93.25
3780;BME280;1905;52.482;9.802;2022-10-31T10:25:20;101625.03;;;15.41;93.01
3780;BME280;1905;52.482;9.802;2022-10-31T10:27:56;101637.28;;;15.45;93.21
3780;BME280;1905;52.482;9.802;2022-10-31T10:30:32;101638.16;;;15.45;92.24
3780;BME280;1905;52.482;9.802;2022-10-31T10:33:07;101631.84;;;15.48;92.42
3780;BME280;1905;52.482;9.802;2022-10-31T10:35:40;101628.16;;;15.51;93.04
3780;BME280;1905;52.482;9.802;2022-10-31T10:38:16;101633.25;;;15.55;92.16
3780;BME280;1905;52.482;9.802;2022-10-31T10:40:46;101623.34;;;15.59;91.96
3780;BME280;1905;52.482;9.802;2022-10-31T10:43:23;101632.88;;;15.63;91.07
3780;BME280;1905;52.482;9.802;2022-10-31T10:46:14;101627.41;;;15.66;90.91
3780;BME280;1905;52.482;9.802;2022-10-31T10:49:07;101623.91;;;15.65;91.27
3780;BME280;1905;52.482;9.802;2022-10-31T10:51:43;101621.00;;;15.70;91.84
3780;BME280;1905;52.482;9.802;2022-10-31T10:54:46;101626.25;;;15.71;92.04
3780;BME280;1905;52.482;9.802;2022-10-31T10:57:27;101619.97;;;15.72;92.16
3780;BME280;1905;52.482;9.802;2022-10-31T11:00:00;101614.50;;;15.75;91.13
3780;BME280;1905;52.482;9.802;2022-10-31T11:02:32;101610.88;;;15.76;91.01
3780;BME280;1905;52.482;9.802;2022-10-31T11:05:01;101617.03;;;15.78;91.89
3780;BME280;1905;52.482;9.802;2022-10-31T11:07:37;101615.91;;;15.82;90.24
3780;BME280;1905;52.482;9.802;2022-10-31T11:10:12;101619.28;;;15.86;91.44
3780;BME280;1905;52.482;9.802;2022-10-31T11:12:42;101613.72;;;15.90;92.05
3780;BME280;1905;52.482;9.802;2022-10-31T11:15:19;101607.47;;;15.91;92.27
3780;BME280;1905;52.482;9.802;2022-10-31T11:17:49;101598.34;;;15.95;90.65
3780;BME280;1905;52.482;9.802;2022-10-31T11:20:28;101592.97;;;15.97;91.01
3780;BME280;1905;52.482;9.802;2022-10-31T11:23:04;101591.03;;;16.00;91.52
3780;BME280;1905;52.482;9.802;2022-10-31T11:25:34;101586.31;;;16.05;90.83
3780;BME280;1905;52.482;9.802;2022-10-31T11:28:06;101589.75;;;16.07;90.76
3780;BME280;1905;52.482;9.802;2022-10-31T11:30:42;101588.72;;;16.10;90.92
3780;BME280;1905;52.482;9.802;2022-10-31T11:33:17;101576.88;;;16.16;90.11
3780;BME280;1905;52.482;9.802;2022-10-31T11:35:46;101581.97;;;16.20;89.15
3780;BME280;1905;52.482;9.802;2022-10-31T11:38:21;101579.22;;;16.22;89.77
3780;BME280;1905;52.482;9.802;2022-10-31T11:40:53;101578.91;;;16.28;90.04
3780;BME280;1905;52.482;9.802;2022-10-31T11:43:22;101580.63;;;16.29;89.12
3780;BME280;1905;52.482;9.802;2022-10-31T11:45:50;101575.91;;;16.34;88.80
3780;BME280;1905;52.482;9.802;2022-10-31T11:48:20;101574.03;;;16.36;89.16
3780;BME280;1905;52.482;9.802;2022-10-31T11:50:50;101568.50;;;16.39;88.77
3780;BME280;1905;52.482;9.802;2022-10-31T11:53:22;101570.25;;;16.40;88.89
3780;BME280;1905;52.482;9.802;2022-10-31T11:56:04;101567.44;;;16.43;89.10
3780;BME280;1905;52.482;9.802;2022-10-31T11:58:32;101566.34;;;16.47;88.98
3780;BME280;1905;52.482;9.802;2022-10-31T12:01:00;101560.81;;;16.50;88.02
3780;BME280;1905;52.482;9.802;2022-10-31T12:03:36;101558.94;;;16.52;88.58
3780;BME280;1905;52.482;9.802;2022-10-31T12:06:09;101564.97;;;16.55;89.90
3780;BME280;1905;52.482;9.802;2022-10-31T12:08:43;101562.91;;;16.60;88.11
3780;BME280;1905;52.482;9.802;2022-10-31T12:11:20;101559.25;;;16.63;88.27
3780;BME280;1905;52.482;9.802;2022-10-31T12:14:02;101547.44;;;16.67;88.00
3780;BME280;1905;52.482;9.802;2022-10-31T12:16:35;101547.28;;;16.70;87.41
3780;BME280;1905;52.482;9.802;2022-10-31T12:19:06;101547.88;;;16.75;87.56
3780;BME280;1905;52.482;9.802;2022-10-31T12:21:48;101544.03;;;16.81;88.13
3780;BME280;1905;52.482;9.802;2022-10-31T12:24:27;101532.31;;;16.83;87.67
3780;BME280;1905;52.482;9.802;2022-10-31T12:27:08;101528.72;;;16.84;88.14
3780;BME280;1905;52.482;9.802;2022-10-31T12:29:51;101527.69;;;16.87;87.85
3780;BME280;1905;52.482;9.802;2022-10-31T12:32:32;101535.34;;;16.93;88.18
3780;BME280;1905;52.482;9.802;2022-10-31T12:35:25;101529.75;;;16.97;87.71
3780;BME280;1905;52.482;9.802;2022-10-31T12:38:09;101534.91;;;17.00;86.98
3780;BME280;1905;52.482;9.802;2022-10-31T12:40:51;101528.53;;;17.03;87.03
3780;BME280;1905;52.482;9.802;2022-10-31T12:43:33;101533.78;;;17.04;88.17
3780;BME280;1905;52.482;9.802;2022-10-31T12:46:03;101524.72;;;17.07;87.44
3780;BME280;1905;52.482;9.802;2022-10-31T12:48:47;101521.97;;;17.08;87.28
3780;BME280;1905;52.482;9.802;2022-10-31T12:51:28;101513.97;;;17.08;86.64
3780;BME280;1905;52.482;9.802;2022-10-31T12:54:16;101518.34;;;17.09;87.57
3780;BME280;1905;52.482;9.802;2022-10-31T12:56:54;101519.31;;;17.08;87.69
3780;BME280;1905;52.482;9.802;2022-10-31T12:59:31;101512.84;;;17.12;87.02
3780;BME280;1905;52.482;9.802;2022-10-31T13:02:03;101509.06;;;17.16;87.39
3780;BME280;1905;52.482;9.802;2022-10-31T13:04:41;101500.28;;;17.14;87.41
3780;BME280;1905;52.482;9.802;2022-10-31T13:07:12;101500.13;;;17.17;87.00
3780;BME280;1905;52.482;9.802;2022-10-31T13:09:48;101496.47;;;17.18;87.01
3780;BME280;1905;52.482;9.802;2022-10-31T13:12:20;101491.81;;;17.22;86.65
3780;BME280;1905;52.482;9.802;2022-10-31T13:14:57;101485.63;;;17.21;86.69
3780;BME280;1905;52.482;9.802;2022-10-31T13:17:31;101471.59;;;17.18;86.94
3780;BME280;1905;52.482;9.802;2022-10-31T13:20:13;101466.00;;;17.22;86.98
3780;BME280;1905;52.482;9.802;2022-10-31T13:22:46;101454.44;;;17.22;86.33
3780;BME280;1905;52.482;9.802;2022-10-31T13:25:19;101451.78;;;17.22;86.57
3780;BME280;1905;52.482;9.802;2022-10-31T13:27:59;101448.41;;;17.18;87.13
3780;BME280;1905;52.482;9.802;2022-10-31T13:30:31;101442.13;;;17.19;86.56
3780;BME280;1905;52.482;9.802;2022-10-31T13:33:02;101443.94;;;17.19;86.98
3780;BME280;1905;52.482;9.802;2022-10-31T13:35:40;101432.41;;;17.18;86.91
3780;BME280;1905;52.482;9.802;2022-10-31T13:38:16;101436.03;;;17.17;87.87
3780;BME280;1905;52.482;9.802;2022-10-31T13:40:51;101436.41;;;17.11;87.35
3780;BME280;1905;52.482;9.802;2022-10-31T13:43:28;101431.81;;;17.13;87.26
3780;BME280;1905;52.482;9.802;2022-10-31T13:46:00;101434.31;;;17.16;87.30
3780;BME280;1905;52.482;9.802;2022-10-31T13:48:37;101428.97;;;17.16;87.21
3780;BME280;1905;52.482;9.802;2022-10-31T13:51:09;101430.00;;;17.14;87.35
3780;BME280;1905;52.482;9.802;2022-10-31T13:53:40;101414.84;;;17.14;87.24